Lac St. Pierre, Canada
Current Conditions -  °F | °C
As of 11:55 PM on Friday 31 Oct 2014 (Local Time) from KFSO Reporting Station
Clear Clear  
Wind Chill: 32°   Ceiling: Unl
Heat Index: 37°   Visibility: 10mi
Dew Point: 28°   Wind: 6mph
Humidity: 70%   Direction: 360°N
Pressure: 30.06"   Gusts: NA
Location:  45.18°N, 72.92°W
Report Text: KFSO 010355Z AUTO 36005KT 10SM CLR 03/M02 A3006 RMK AO2 T00251025
Loading
Personal Weather Stations






























Interactive Weather Map
Tropical Storm Tracking
New forecast layout! Learn more

10-Day Weather Forecast

Advertisements
Track Severe Weather on mobile